Hernderson, Zimbabwe

2:27 PM CAT on March 03, 2015 (GMT +0200)
Borrowdale Brooke | Change Station
CLOSE
Current Station
Personal Weather Station
Location: Harare, MASHONALAND
Elevation: 4757 ft
Nearby Weather Stations

Elev 4757 ft 17.71 °S, 31.14 °E | Updated 46 seconds ago

Mostly Cloudy
Mostly Cloudy
70.7 °F
Feels Like 74 °F
N
5.8
Wind Variable Wind from South
Gusts 5.8 mph

Today
High -- | Low -- °F
--% Chance of Precip.
Yesterday
High -- | Low -- °F
Precip. -- in
5:55 AM 6:20 PM
Waxing Gibbous, 96% visible
Pressure 30.21 in
Visibility 6.2 miles
Clouds Mostly Cloudy 2000 ft
Heat Index 74 °F
Dew Point 60 °F
Humidity 68%
Rainfall 0.10 in
Snow Depth Not available.
UV 7 out of 12
Pollen Not available.
Air Quality Not available.
Flu Activity Not available.
METAR FVHA 031200Z 16010KT 120V200 9999 BKN020 19/15 Q1023 NOSIG

More Conditions Fewer Conditions

Pressure 30.21 in
Visibility 6.2 miles
Clouds Mostly Cloudy 2000 ft
Heat Index 74 °F
Dew Point 60 °F
Humidity 68%
Rainfall 0.10 in
Snow Depth Not available.
UV 7 out of 12
Pollen Not available.
Air Quality Not available.
Flu Activity Not available.
METAR FVHA 031200Z 16010KT 120V200 9999 BKN020 19/15 Q1023 NOSIG

More Conditions Fewer Conditions

10-Day Weather Forecast

Almanac

Astronomy

Mar. 03, 2015 Rise Set
Actual Time
Civil Twilight
Nautical Twilight
Astronomical Twilight
Moon
Length of Visible Light
Length of Day
Tomorrow will be .
, % of the Moon is Illuminated

Today's Extremes

Country Highs Country Lows

Community

WunderPhotos

Upload Photos

1,802,095 photos uploaded!

WunderBlogs® & News

Nearby

Air Quality

  Air Quality AQ Index Pollutant
Not available.

Snow Depth

Station Depth Elevation

Earthquake Activity

City Distance Mag. Time & Date
Minimum magnitude displayed is 2.5.

Coastal Water Temperatures

Place Temperature

Nearby Weather Stations